createdAt,value
2018-07-26T00:00:50.841Z,27.20
2018-07-26T00:03:19.936Z,27.19
2018-07-26T00:05:49.108Z,27.11
2018-07-26T00:08:18.216Z,27.04
2018-07-26T00:10:47.345Z,26.93
2018-07-26T00:13:16.432Z,26.77
2018-07-26T00:15:45.536Z,26.67
2018-07-26T00:18:14.644Z,26.61
2018-07-26T00:20:43.745Z,26.57
2018-07-26T00:23:12.869Z,26.53
2018-07-26T00:25:41.976Z,26.52
2018-07-26T00:28:11.048Z,26.50
2018-07-26T00:30:40.160Z,26.51
2018-07-26T00:33:09.263Z,26.60
2018-07-26T00:35:38.364Z,26.65
2018-07-26T00:38:07.448Z,26.72
2018-07-26T00:40:36.548Z,26.70
2018-07-26T00:43:05.875Z,26.71
2018-07-26T00:45:35.005Z,26.67
2018-07-26T00:48:04.093Z,26.66
2018-07-26T00:50:33.188Z,26.65
2018-07-26T00:53:02.299Z,26.58
2018-07-26T00:55:31.392Z,26.57
2018-07-26T00:58:00.467Z,26.52
2018-07-26T01:00:29.608Z,26.43
2018-07-26T01:02:58.809Z,26.30
2018-07-26T01:05:27.896Z,26.22
2018-07-26T01:07:57.025Z,26.13
2018-07-26T01:10:26.132Z,26.12
2018-07-26T01:12:55.236Z,26.05
2018-07-26T01:15:24.350Z,25.92
2018-07-26T01:17:53.512Z,25.88
2018-07-26T01:20:22.589Z,25.91
2018-07-26T01:22:51.697Z,25.88
2018-07-26T01:25:20.768Z,25.74
2018-07-26T01:27:49.868Z,25.71
2018-07-26T01:30:18.964Z,25.71
2018-07-26T01:32:48.056Z,25.75
2018-07-26T01:35:17.155Z,25.79
2018-07-26T01:37:46.273Z,25.79
2018-07-26T01:40:15.348Z,25.77
2018-07-26T01:42:55.776Z,25.75
2018-07-26T01:45:24.857Z,25.76
2018-07-26T01:47:53.965Z,25.82
2018-07-26T01:50:23.019Z,25.76
2018-07-26T01:52:52.111Z,25.72
2018-07-26T01:55:21.180Z,25.64
2018-07-26T01:57:50.288Z,25.62
2018-07-26T02:00:19.352Z,25.67
2018-07-26T02:02:48.436Z,25.61
2018-07-26T02:05:17.548Z,25.60
2018-07-26T02:07:46.637Z,25.56
2018-07-26T02:10:15.723Z,25.53
2018-07-26T02:12:44.812Z,25.46
2018-07-26T02:15:13.891Z,25.37
2018-07-26T02:17:42.976Z,25.22
2018-07-26T02:20:12.052Z,25.18
2018-07-26T02:22:41.148Z,25.17
2018-07-26T02:25:10.212Z,25.21
2018-07-26T02:27:39.327Z,25.17
2018-07-26T02:30:08.412Z,25.17
2018-07-26T02:32:37.512Z,25.00
2018-07-26T02:35:06.594Z,24.89
2018-07-26T02:37:35.692Z,24.86
2018-07-26T02:40:04.760Z,24.81
2018-07-26T02:42:33.870Z,24.90
2018-07-26T02:45:02.981Z,24.95
2018-07-26T02:47:32.101Z,24.98
2018-07-26T02:50:01.204Z,24.97
2018-07-26T02:52:30.308Z,24.96
2018-07-26T02:54:59.600Z,25.01
2018-07-26T02:57:28.740Z,25.01
2018-07-26T02:59:57.840Z,24.98
2018-07-26T03:02:26.944Z,24.89
2018-07-26T03:04:56.053Z,24.83
2018-07-26T03:07:25.164Z,24.83
2018-07-26T03:09:54.232Z,24.66
2018-07-26T03:12:23.332Z,24.74
2018-07-26T03:14:52.416Z,24.75
2018-07-26T03:17:21.513Z,24.73
2018-07-26T03:19:50.588Z,24.72
2018-07-26T03:22:19.744Z,24.62
2018-07-26T03:24:48.835Z,24.64
2018-07-26T03:27:17.958Z,24.62
2018-07-26T03:29:47.079Z,24.56
2018-07-26T03:32:16.193Z,24.58
2018-07-26T03:34:45.255Z,24.54
2018-07-26T03:37:14.391Z,24.53
2018-07-26T03:39:43.506Z,24.50
2018-07-26T03:42:12.636Z,24.45
2018-07-26T03:44:41.808Z,24.42
2018-07-26T03:47:11.592Z,24.42
2018-07-26T03:49:40.684Z,24.30
2018-07-26T03:52:09.748Z,24.40
2018-07-26T03:54:38.851Z,24.42
2018-07-26T03:57:08.000Z,24.46
2018-07-26T03:59:37.122Z,24.50
2018-07-26T04:02:06.347Z,24.60
2018-07-26T04:04:35.479Z,24.64
2018-07-26T04:07:04.552Z,24.66
2018-07-26T04:09:33.645Z,24.53
2018-07-26T04:12:02.769Z,24.56
2018-07-26T04:14:31.857Z,24.58
2018-07-26T04:17:00.930Z,24.57
2018-07-26T04:19:30.024Z,24.59
2018-07-26T04:21:59.112Z,24.60
2018-07-26T04:24:28.207Z,24.62
2018-07-26T04:26:57.317Z,24.64
2018-07-26T04:29:26.432Z,24.70
2018-07-26T04:31:56.468Z,24.71
2018-07-26T04:34:25.500Z,24.68
2018-07-26T04:36:54.595Z,24.63
2018-07-26T04:39:23.692Z,24.57
2018-07-26T04:41:52.763Z,24.42
2018-07-26T04:44:21.872Z,24.39
2018-07-26T04:46:50.956Z,24.28
2018-07-26T04:49:20.052Z,24.24
2018-07-26T04:51:49.126Z,24.27
2018-07-26T04:54:18.296Z,24.30
2018-07-26T04:56:48.394Z,24.43
2018-07-26T04:59:17.508Z,24.54
2018-07-26T05:01:46.636Z,24.59
2018-07-26T05:04:15.768Z,24.69
2018-07-26T05:06:44.848Z,24.86
2018-07-26T05:09:13.988Z,25.01
2018-07-26T05:11:43.067Z,24.99
2018-07-26T05:14:12.169Z,25.10
2018-07-26T05:16:41.307Z,25.15
2018-07-26T05:19:10.468Z,25.23
2018-07-26T05:21:39.632Z,25.31
2018-07-26T05:24:10.173Z,25.27
2018-07-26T05:26:40.308Z,25.33
2018-07-26T05:29:09.406Z,25.43
2018-07-26T05:31:38.548Z,25.52
2018-07-26T05:34:07.784Z,25.60
2018-07-26T05:36:37.059Z,25.65
2018-07-26T05:39:09.024Z,25.49
2018-07-26T05:41:38.227Z,25.69
2018-07-26T05:44:07.346Z,25.83
2018-07-26T05:46:36.536Z,25.91
2018-07-26T05:49:05.739Z,25.94
2018-07-26T05:51:34.916Z,25.95
2018-07-26T05:54:04.049Z,25.96
2018-07-26T05:56:33.164Z,26.06
2018-07-26T05:59:02.316Z,26.08
2018-07-26T06:01:31.588Z,26.33
2018-07-26T06:04:01.214Z,26.48
2018-07-26T06:06:30.417Z,26.58
2018-07-26T06:08:59.623Z,26.81
2018-07-26T06:11:28.768Z,27.01
2018-07-26T06:13:57.912Z,27.28
2018-07-26T06:16:27.659Z,27.50
2018-07-26T06:18:56.797Z,27.47
2018-07-26T06:21:26.072Z,27.49
2018-07-26T06:23:55.204Z,27.69
2018-07-26T06:26:24.300Z,27.72
2018-07-26T06:28:53.714Z,27.95
2018-07-26T06:31:22.895Z,27.90
2018-07-26T06:33:52.073Z,27.92
2018-07-26T06:36:21.180Z,28.13
2018-07-26T06:38:50.340Z,28.20
2018-07-26T06:41:19.432Z,28.15
2018-07-26T06:43:48.546Z,28.32
2018-07-26T06:46:17.670Z,28.40
2018-07-26T06:48:46.788Z,28.40
2018-07-26T06:51:16.005Z,28.51
2018-07-26T06:53:45.150Z,28.52
2018-07-26T06:56:14.265Z,28.46
2018-07-26T06:58:43.378Z,28.37
2018-07-26T07:01:12.469Z,28.38
2018-07-26T07:03:41.581Z,28.28
2018-07-26T07:06:10.698Z,28.44
2018-07-26T07:08:39.787Z,28.51
2018-07-26T07:11:08.893Z,28.60
2018-07-26T07:13:38.070Z,28.78
2018-07-26T07:16:07.233Z,28.88
2018-07-26T07:18:36.338Z,28.89
2018-07-26T07:21:05.516Z,28.98
2018-07-26T07:23:34.649Z,29.13
2018-07-26T07:26:03.850Z,29.18
2018-07-26T07:28:32.928Z,29.37
2018-07-26T07:31:02.063Z,29.55
2018-07-26T07:33:31.171Z,29.55
2018-07-26T07:36:00.309Z,29.48
2018-07-26T07:38:29.416Z,29.55
2018-07-26T07:40:58.562Z,29.76
2018-07-26T07:43:27.680Z,29.91
2018-07-26T07:45:56.805Z,29.97
2018-07-26T07:48:25.945Z,30.02
2018-07-26T07:50:55.514Z,30.08
2018-07-26T07:53:24.670Z,30.13
2018-07-26T07:55:53.811Z,30.30
2018-07-26T07:58:23.025Z,30.39
2018-07-26T08:00:52.164Z,30.26
2018-07-26T08:03:21.290Z,30.31
2018-07-26T08:05:50.472Z,30.35
2018-07-26T08:08:19.585Z,30.29
2018-07-26T08:10:48.707Z,30.50
2018-07-26T08:13:17.777Z,30.61
2018-07-26T08:15:47.634Z,30.74
2018-07-26T08:18:19.670Z,30.77
2018-07-26T08:20:48.769Z,30.82
2018-07-26T08:23:17.844Z,31.08
2018-07-26T08:25:47.024Z,31.03
2018-07-26T08:28:16.109Z,31.21
2018-07-26T08:30:45.209Z,31.33
2018-07-26T08:33:14.311Z,31.26
2018-07-26T08:35:43.388Z,31.30
2018-07-26T08:38:12.528Z,31.44
2018-07-26T08:40:41.612Z,31.54
2018-07-26T08:43:10.726Z,31.57
2018-07-26T08:45:39.832Z,31.77
2018-07-26T08:48:08.955Z,31.81
2018-07-26T08:50:38.388Z,31.81
2018-07-26T08:53:07.505Z,31.68
2018-07-26T08:55:36.636Z,31.76
2018-07-26T08:58:05.736Z,32.03
2018-07-26T09:00:34.841Z,32.20
2018-07-26T09:03:03.936Z,32.17
2018-07-26T09:05:33.048Z,32.12
2018-07-26T09:08:02.179Z,32.21
2018-07-26T09:10:31.264Z,32.22
2018-07-26T09:13:00.407Z,32.24
2018-07-26T09:15:29.496Z,32.33
2018-07-26T09:17:58.634Z,32.41
2018-07-26T09:20:27.709Z,32.25
2018-07-26T09:22:56.788Z,32.11
2018-07-26T09:25:25.904Z,32.21
2018-07-26T09:27:55.021Z,32.32
2018-07-26T09:30:24.567Z,32.58
2018-07-26T09:32:53.649Z,32.92
2018-07-26T09:35:23.179Z,33.13
2018-07-26T09:37:52.236Z,33.25
2018-07-26T09:40:21.360Z,33.32
2018-07-26T09:42:50.520Z,33.28
2018-07-26T09:45:19.703Z,33.35
2018-07-26T09:47:48.800Z,33.55
2018-07-26T09:50:17.969Z,33.77
2018-07-26T09:52:47.223Z,33.91
2018-07-26T09:55:16.452Z,34.02
2018-07-26T09:57:45.684Z,34.02
2018-07-26T10:00:18.992Z,34.03
2018-07-26T10:02:48.071Z,34.16
2018-07-26T10:05:17.211Z,34.28
2018-07-26T10:07:46.288Z,34.25
2018-07-26T10:10:15.404Z,33.97
2018-07-26T10:12:44.505Z,33.79
2018-07-26T10:15:13.577Z,33.72
2018-07-26T10:17:42.676Z,33.62
2018-07-26T10:20:11.810Z,33.76
2018-07-26T10:22:40.919Z,33.82
2018-07-26T10:25:09.992Z,33.78
2018-07-26T10:27:39.181Z,33.87
2018-07-26T10:30:08.792Z,33.79
2018-07-26T10:32:38.128Z,33.88
2018-07-26T10:35:07.240Z,33.87
2018-07-26T10:37:36.348Z,33.93
2018-07-26T10:40:05.580Z,34.17
2018-07-26T10:42:34.668Z,34.08
2018-07-26T10:45:03.765Z,34.01
2018-07-26T10:47:34.140Z,34.12
2018-07-26T10:50:04.710Z,34.19
2018-07-26T10:52:33.760Z,34.22
2018-07-26T10:55:02.832Z,34.13
2018-07-26T10:57:31.992Z,34.18
2018-07-26T11:00:01.116Z,34.31
2018-07-26T11:02:30.224Z,34.63
2018-07-26T11:04:59.320Z,34.51
2018-07-26T11:07:28.591Z,34.46
2018-07-26T11:09:57.675Z,34.61
2018-07-26T11:12:27.244Z,34.33
2018-07-26T11:15:01.828Z,34.21
2018-07-26T11:17:31.804Z,34.36
2018-07-26T11:20:02.349Z,34.49
2018-07-26T11:22:31.540Z,34.47
2018-07-26T11:25:00.608Z,34.45
2018-07-26T11:27:29.700Z,34.40
2018-07-26T11:29:58.829Z,34.26
2018-07-26T11:32:29.732Z,34.28
2018-07-26T11:35:00.051Z,34.32
2018-07-26T11:37:29.296Z,34.52
2018-07-26T11:40:00.714Z,34.67
2018-07-26T11:42:32.327Z,34.71
2018-07-26T11:45:04.138Z,34.84
2018-07-26T11:47:33.308Z,34.81
2018-07-26T11:50:02.422Z,34.91
2018-07-26T11:52:31.517Z,34.78
2018-07-26T11:55:00.612Z,34.87
2018-07-26T11:57:29.788Z,34.81
2018-07-26T11:59:58.920Z,34.67
2018-07-26T12:02:28.031Z,34.63
2018-07-26T12:04:57.108Z,34.69
2018-07-26T12:07:26.204Z,34.72
2018-07-26T12:09:55.301Z,34.70
2018-07-26T12:12:24.392Z,34.61
2018-07-26T12:14:53.989Z,34.69
2018-07-26T12:17:23.072Z,34.74
2018-07-26T12:19:52.181Z,35.01
2018-07-26T12:22:21.269Z,35.09
2018-07-26T12:24:51.308Z,35.09
2018-07-26T12:27:20.658Z,34.83
2018-07-26T12:29:49.834Z,34.82
2018-07-26T12:32:18.934Z,34.92
2018-07-26T12:34:48.092Z,34.93
2018-07-26T12:37:17.258Z,34.93
2018-07-26T12:39:46.649Z,34.92
2018-07-26T12:42:15.980Z,35.05
2018-07-26T12:44:45.076Z,35.08
2018-07-26T12:47:14.249Z,35.08
2018-07-26T12:49:43.412Z,35.16
2018-07-26T12:52:17.456Z,35.14
2018-07-26T12:54:46.599Z,35.10
2018-07-26T12:57:15.868Z,35.18
2018-07-26T12:59:45.048Z,35.26
2018-07-26T13:02:14.290Z,35.23
2018-07-26T13:04:43.483Z,35.21
2018-07-26T13:07:12.608Z,35.24
2018-07-26T13:09:42.502Z,35.17
2018-07-26T13:12:12.516Z,35.19
2018-07-26T13:14:41.726Z,35.20
2018-07-26T13:17:10.769Z,35.17
2018-07-26T13:19:39.924Z,35.21
2018-07-26T13:22:09.039Z,35.20
2018-07-26T13:24:38.205Z,35.13
2018-07-26T13:27:07.461Z,35.15
2018-07-26T13:29:36.537Z,35.08
2018-07-26T13:32:06.088Z,35.39
2018-07-26T13:34:35.336Z,35.40
2018-07-26T13:37:04.404Z,35.35
2018-07-26T13:39:33.520Z,35.44
2018-07-26T13:42:02.616Z,35.56
2018-07-26T13:44:31.716Z,35.64
2018-07-26T13:47:00.812Z,35.59
2018-07-26T13:49:29.905Z,35.76
2018-07-26T13:51:58.972Z,35.73
2018-07-26T13:54:28.202Z,35.77
2018-07-26T13:56:57.276Z,35.71
2018-07-26T13:59:26.360Z,35.69
2018-07-26T14:01:56.416Z,35.60
2018-07-26T14:04:25.522Z,35.39
2018-07-26T14:06:54.591Z,35.51
2018-07-26T14:09:23.692Z,35.46
2018-07-26T14:11:52.868Z,35.41
2018-07-26T14:14:28.497Z,35.33
2018-07-26T14:16:57.672Z,35.39
2018-07-26T14:19:26.784Z,35.43
2018-07-26T14:21:55.960Z,35.44
2018-07-26T14:24:25.684Z,35.52
2018-07-26T14:26:54.791Z,35.65
2018-07-26T14:29:24.034Z,35.62
2018-07-26T14:31:53.068Z,35.72
2018-07-26T14:34:22.187Z,35.70
2018-07-26T14:36:51.290Z,35.78
2018-07-26T14:39:20.400Z,35.85
2018-07-26T14:41:49.464Z,35.77
2018-07-26T14:44:18.568Z,35.77
2018-07-26T14:46:47.640Z,35.73
2018-07-26T14:49:16.739Z,35.51
2018-07-26T14:51:45.887Z,35.48
2018-07-26T14:54:14.924Z,35.47
2018-07-26T14:56:44.920Z,35.60
2018-07-26T14:59:14.140Z,35.63
2018-07-26T15:01:43.312Z,35.60
2018-07-26T15:04:12.744Z,35.60
2018-07-26T15:06:41.879Z,35.68
2018-07-26T15:09:11.209Z,35.67
2018-07-26T15:11:40.464Z,35.59
2018-07-26T15:14:09.625Z,35.66
2018-07-26T15:16:38.732Z,35.76
2018-07-26T15:19:07.917Z,35.70
2018-07-26T15:21:37.304Z,35.60
2018-07-26T15:24:06.796Z,35.63
2018-07-26T15:26:35.913Z,35.50
2018-07-26T15:29:05.080Z,35.48
2018-07-26T15:31:34.204Z,35.33
2018-07-26T15:34:03.304Z,35.32
2018-07-26T15:36:32.423Z,35.10
2018-07-26T15:39:01.536Z,35.21
2018-07-26T15:41:30.688Z,35.07
2018-07-26T15:43:59.736Z,35.13
2018-07-26T15:46:28.860Z,34.83
2018-07-26T15:48:57.982Z,34.83
2018-07-26T15:51:27.191Z,35.05
2018-07-26T15:53:56.293Z,35.05
2018-07-26T15:56:25.470Z,34.96
2018-07-26T15:58:55.570Z,34.99
2018-07-26T16:01:24.841Z,35.07
2018-07-26T16:03:53.948Z,35.07
2018-07-26T16:06:23.097Z,34.96
2018-07-26T16:08:52.212Z,34.86
2018-07-26T16:11:22.295Z,34.86
2018-07-26T16:13:51.384Z,34.85
2018-07-26T16:16:20.588Z,34.96
2018-07-26T16:18:49.692Z,34.86
2018-07-26T16:21:18.842Z,34.86
2018-07-26T16:23:47.948Z,34.79
2018-07-26T16:26:17.172Z,34.71
2018-07-26T16:28:46.407Z,34.70
2018-07-26T16:31:15.457Z,34.68
2018-07-26T16:33:44.596Z,34.67
2018-07-26T16:36:13.693Z,34.66
2018-07-26T16:38:42.800Z,34.65
2018-07-26T16:41:11.901Z,34.62
2018-07-26T16:43:41.043Z,34.74
2018-07-26T16:46:10.145Z,34.73
2018-07-26T16:48:39.344Z,34.64
2018-07-26T16:51:08.561Z,34.57
2018-07-26T16:53:37.716Z,34.64
2018-07-26T16:56:06.829Z,34.61
2018-07-26T16:58:36.118Z,34.51
2018-07-26T17:01:05.092Z,34.50
2018-07-26T17:03:34.252Z,34.55
2018-07-26T17:06:03.364Z,34.62
2018-07-26T17:08:32.541Z,34.63
2018-07-26T17:11:01.648Z,34.51
2018-07-26T17:13:30.809Z,34.57
2018-07-26T17:15:59.925Z,34.58
2018-07-26T17:18:29.059Z,34.48
2018-07-26T17:20:58.520Z,34.50
2018-07-26T17:23:27.655Z,34.41
2018-07-26T17:25:56.773Z,34.34
2018-07-26T17:28:25.880Z,34.38
2018-07-26T17:30:54.977Z,34.46
2018-07-26T17:33:24.097Z,35.62
2018-07-26T17:35:53.556Z,34.89
2018-07-26T17:38:22.700Z,34.76
2018-07-26T17:40:51.784Z,34.67
2018-07-26T17:43:20.884Z,34.64
2018-07-26T17:45:50.916Z,34.50
2018-07-26T17:48:20.041Z,34.49
2018-07-26T17:50:49.287Z,34.43
2018-07-26T17:53:18.611Z,34.45
2018-07-26T17:55:47.737Z,34.32
2018-07-26T17:58:16.844Z,34.22
2018-07-26T18:00:46.045Z,34.24
2018-07-26T18:03:15.173Z,34.14
2018-07-26T18:05:44.319Z,34.18
2018-07-26T18:08:13.412Z,34.22
2018-07-26T18:10:42.512Z,34.19
2018-07-26T18:13:11.678Z,34.09
2018-07-26T18:15:40.723Z,33.93
2018-07-26T18:18:09.828Z,33.92
2018-07-26T18:20:38.931Z,33.90
2018-07-26T18:23:08.053Z,33.89
2018-07-26T18:25:37.164Z,33.88
2018-07-26T18:28:07.145Z,33.86
2018-07-26T18:30:36.542Z,33.81
2018-07-26T18:33:05.665Z,33.79
2018-07-26T18:35:34.740Z,33.75
2018-07-26T18:38:03.922Z,33.72
2018-07-26T18:40:32.931Z,33.73
2018-07-26T18:43:02.072Z,33.71
2018-07-26T18:45:31.165Z,33.68
2018-07-26T18:48:00.261Z,33.67
2018-07-26T18:50:29.348Z,33.66
2018-07-26T18:52:58.449Z,33.68
2018-07-26T18:55:27.550Z,33.70
2018-07-26T18:57:56.688Z,33.63
2018-07-26T19:00:26.500Z,33.59
2018-07-26T19:02:56.536Z,33.55
2018-07-26T19:05:25.745Z,33.54
2018-07-26T19:07:54.840Z,33.53
2018-07-26T19:10:23.944Z,33.46
2018-07-26T19:12:53.024Z,33.39
2018-07-26T19:15:22.169Z,33.32
2018-07-26T19:17:51.265Z,33.27
2018-07-26T19:20:20.376Z,33.23
2018-07-26T19:22:49.498Z,33.17
2018-07-26T19:25:18.628Z,33.10
2018-07-26T19:27:47.736Z,33.03
2018-07-26T19:30:16.864Z,32.98
2018-07-26T19:32:46.784Z,32.88
2018-07-26T19:35:15.917Z,32.72
2018-07-26T19:37:45.006Z,32.63
2018-07-26T19:40:14.100Z,32.54
2018-07-26T19:42:43.178Z,32.35
2018-07-26T19:45:12.331Z,32.19
2018-07-26T19:47:41.645Z,32.15
2018-07-26T19:50:10.820Z,32.03
2018-07-26T19:52:40.005Z,31.98
2018-07-26T19:55:10.743Z,31.84
2018-07-26T19:57:39.839Z,31.73
2018-07-26T20:00:09.648Z,31.57
2018-07-26T20:02:39.437Z,31.45
2018-07-26T20:05:09.173Z,31.36
2018-07-26T20:07:38.569Z,31.03
2018-07-26T20:10:09.724Z,30.58
2018-07-26T20:12:38.844Z,30.66
2018-07-26T20:15:08.328Z,30.88
2018-07-26T20:17:37.469Z,30.99
2018-07-26T20:20:09.493Z,30.99
2018-07-26T20:22:38.623Z,30.98
2018-07-26T20:25:07.743Z,31.01
2018-07-26T20:27:36.842Z,30.97
2018-07-26T20:30:07.615Z,30.93
2018-07-26T20:32:36.984Z,30.92
2018-07-26T20:35:06.525Z,30.90
2018-07-26T20:37:35.637Z,30.76
2018-07-26T20:40:06.337Z,30.56
2018-07-26T20:42:35.437Z,30.37
2018-07-26T20:45:05.648Z,30.31
2018-07-26T20:47:34.745Z,30.19
2018-07-26T20:50:05.307Z,30.08
2018-07-26T20:52:34.565Z,29.91
2018-07-26T20:55:04.038Z,29.68
2018-07-26T20:57:33.163Z,29.43
2018-07-26T21:00:02.288Z,29.24
2018-07-26T21:02:31.375Z,29.16
2018-07-26T21:05:00.521Z,29.32
2018-07-26T21:07:36.364Z,29.43
2018-07-26T21:10:06.621Z,29.54
2018-07-26T21:12:35.836Z,29.66
2018-07-26T21:15:05.851Z,29.65
2018-07-26T21:17:35.048Z,29.24
2018-07-26T21:20:04.641Z,29.02
2018-07-26T21:22:33.748Z,29.20
2018-07-26T21:25:02.845Z,29.15
2018-07-26T21:27:31.947Z,29.24
2018-07-26T21:30:01.048Z,29.35
2018-07-26T21:32:30.144Z,29.46
2018-07-26T21:34:59.248Z,29.54
2018-07-26T21:37:28.333Z,29.57
2018-07-26T21:39:57.444Z,29.60
2018-07-26T21:42:26.528Z,29.52
2018-07-26T21:44:55.620Z,29.44
2018-07-26T21:47:24.720Z,29.20
2018-07-26T21:49:53.804Z,29.15
2018-07-26T21:52:22.876Z,29.13
2018-07-26T21:54:52.104Z,29.12
2018-07-26T21:57:21.184Z,29.13
2018-07-26T21:59:50.280Z,29.11
2018-07-26T22:02:19.467Z,29.05
2018-07-26T22:04:48.491Z,29.12
2018-07-26T22:07:17.604Z,29.09
2018-07-26T22:09:46.998Z,29.07
2018-07-26T22:12:16.117Z,29.00
2018-07-26T22:14:45.180Z,28.90
2018-07-26T22:17:14.289Z,28.70
2018-07-26T22:19:43.397Z,28.52
2018-07-26T22:22:12.560Z,28.33
2018-07-26T22:24:41.588Z,28.22
2018-07-26T22:27:10.677Z,28.08
2018-07-26T22:29:39.752Z,27.97
2018-07-26T22:32:08.841Z,27.97
2018-07-26T22:34:37.892Z,28.05
2018-07-26T22:37:07.020Z,28.01
2018-07-26T22:39:36.088Z,28.09
2018-07-26T22:42:05.172Z,28.10
2018-07-26T22:44:34.232Z,28.07
2018-07-26T22:47:03.321Z,28.07
2018-07-26T22:49:32.391Z,28.10
2018-07-26T22:52:01.468Z,28.07
2018-07-26T22:54:30.531Z,28.08
2018-07-26T22:56:59.620Z,28.15
2018-07-26T22:59:28.683Z,28.20
2018-07-26T23:01:57.792Z,28.23
2018-07-26T23:04:26.877Z,28.26
2018-07-26T23:06:55.962Z,28.23
2018-07-26T23:09:25.014Z,28.23
2018-07-26T23:11:54.088Z,28.26
2018-07-26T23:14:23.136Z,28.31
2018-07-26T23:16:52.213Z,28.30
2018-07-26T23:19:21.268Z,28.21
2018-07-26T23:21:50.352Z,28.16
2018-07-26T23:24:19.585Z,28.12
2018-07-26T23:26:48.672Z,28.12
2018-07-26T23:29:17.724Z,28.13
2018-07-26T23:31:46.820Z,28.10
2018-07-26T23:34:15.885Z,28.09
2018-07-26T23:36:44.973Z,28.04
2018-07-26T23:39:14.096Z,27.94
2018-07-26T23:41:43.176Z,27.88
2018-07-26T23:44:12.248Z,27.82
2018-07-26T23:46:41.335Z,27.78
2018-07-26T23:49:10.387Z,27.68
2018-07-26T23:51:39.480Z,27.56
2018-07-26T23:54:08.536Z,27.50
2018-07-26T23:56:37.708Z,27.48
2018-07-26T23:59:06.756Z,27.34
